Time;durP1;ratioP1;P1;durP2;ratioP2;P2;SDS_P1;SDS_P2;PMS_P1;PMS_P2;Temp;Humidity;BMP_temperature;BMP_pressure;BME280_temperature;BME280_humidity;BME280_pressure;Samples;Min_cycle;Max_cycle;Signal;HPM_P1;HPM_P2
2023/05/07 00:02:05;;;;;;;0.50;0.50;;;;;;;15.03;100.00;99717.78;5053578;28;20201;-64
2023/05/07 00:04:35;;;;;;;0.43;0.43;;;;;;;15.05;100.00;99710.84;5053290;28;20220;-63
2023/05/07 00:07:02;;;;;;;0.70;0.70;;;;;;;15.11;100.00;99714.00;5052910;28;20604;-63
2023/05/07 00:09:29;;;;;;;0.60;0.60;;;;;;;15.11;100.00;99708.00;5053137;28;20284;-63
2023/05/07 00:11:56;;;;;;;0.70;0.70;;;;;;;15.05;100.00;99709.09;5052817;28;20631;-64
2023/05/07 00:14:24;;;;;;;0.60;0.60;;;;;;;15.02;100.00;99703.22;5053016;28;20215;-64
2023/05/07 00:16:50;;;;;;;0.50;0.50;;;;;;;15.13;100.00;99711.31;5052408;28;20194;-64
2023/05/07 00:19:17;;;;;;;0.77;0.77;;;;;;;15.19;100.00;99716.22;5053017;28;20213;-64
2023/05/07 00:21:44;;;;;;;0.50;0.50;;;;;;;15.29;100.00;99711.50;5053434;28;20204;-64
2023/05/07 00:24:10;;;;;;;0.50;0.50;;;;;;;15.39;100.00;99713.59;5053053;28;20201;-64
2023/05/07 00:26:37;;;;;;;0.60;0.60;;;;;;;15.45;100.00;99715.91;5053573;28;20204;-64
2023/05/07 00:29:04;;;;;;;0.50;0.50;;;;;;;15.53;100.00;99716.44;5052859;28;20260;-64
2023/05/07 00:31:32;;;;;;;0.50;0.50;;;;;;;15.54;100.00;99712.94;5053414;28;20250;-64
2023/05/07 00:33:58;;;;;;;0.40;0.40;;;;;;;15.57;100.00;99717.16;5053024;28;20631;-64
2023/05/07 00:36:26;;;;;;;0.50;0.50;;;;;;;15.58;100.00;99709.31;5053299;28;20269;-64
2023/05/07 00:38:52;;;;;;;0.50;0.50;;;;;;;15.57;100.00;99712.78;5053175;28;20196;-64
2023/05/07 00:41:19;;;;;;;0.43;0.43;;;;;;;15.54;100.00;99717.28;5052584;28;20209;-64
2023/05/07 00:43:46;;;;;;;0.40;0.40;;;;;;;15.49;100.00;99712.31;5052912;28;20569;-64
2023/05/07 00:46:15;;;;;;;0.50;0.50;;;;;;;15.44;100.00;99716.00;5052280;28;20200;-64
2023/05/07 00:48:43;;;;;;;0.50;0.50;;;;;;;15.45;100.00;99718.50;5052977;28;20240;-63
2023/05/07 00:51:11;;;;;;;0.50;0.50;;;;;;;15.45;100.00;99723.66;5052818;28;20197;-64
2023/05/07 00:53:38;;;;;;;0.60;0.60;;;;;;;15.47;100.00;99721.88;5052635;28;20204;-63
2023/05/07 00:56:07;;;;;;;0.50;0.50;;;;;;;15.51;100.00;99718.25;5052818;28;20197;-63
2023/05/07 00:58:34;;;;;;;0.40;0.40;;;;;;;15.52;100.00;99719.09;5052448;28;20719;-64
2023/05/07 01:01:01;;;;;;;0.47;0.47;;;;;;;15.54;100.00;99720.69;5052564;28;20758;-63
2023/05/07 01:03:27;;;;;;;0.70;0.70;;;;;;;15.58;100.00;99713.63;5050725;28;20202;-64
2023/05/07 01:05:58;;;;;;;0.40;0.40;;;;;;;15.47;100.00;99708.94;5052739;28;20203;-64
2023/05/07 01:08:27;;;;;;;0.50;0.50;;;;;;;15.52;100.00;99724.25;5051214;28;20738;-63
2023/05/07 01:10:55;;;;;;;0.57;0.57;;;;;;;15.54;100.00;99720.69;5052129;28;20196;-64
2023/05/07 01:13:22;;;;;;;0.40;0.40;;;;;;;15.53;100.00;99718.19;5051741;28;20200;-64
2023/05/07 01:15:49;;;;;;;0.40;0.40;;;;;;;15.56;100.00;99718.06;5050743;28;20270;-63
2023/05/07 01:18:16;;;;;;;0.50;0.50;;;;;;;15.59;100.00;99721.34;5052282;28;20255;-64
2023/05/07 01:20:43;;;;;;;0.70;0.70;;;;;;;15.51;100.00;99723.41;5051635;28;20255;-63
2023/05/07 01:23:12;;;;;;;0.40;0.40;;;;;;;15.44;100.00;99721.16;5051972;28;20254;-63
2023/05/07 01:25:38;;;;;;;0.50;0.50;;;;;;;15.41;100.00;99716.94;5051312;28;20266;-64
2023/05/07 01:28:05;;;;;;;0.33;0.33;;;;;;;15.36;100.00;99718.06;5052182;28;20263;-63
2023/05/07 01:30:35;;;;;;;0.50;0.50;;;;;;;15.24;100.00;99719.47;5051691;28;20295;-64
2023/05/07 01:33:07;;;;;;;0.60;0.60;;;;;;;15.32;100.00;99722.53;5052171;28;20197;-63
2023/05/07 01:35:38;;;;;;;0.53;0.53;;;;;;;15.42;100.00;99722.94;5051611;28;20208;-64
2023/05/07 01:38:06;;;;;;;0.50;0.50;;;;;;;15.49;100.00;99719.22;5051337;28;20263;-64
2023/05/07 01:40:35;;;;;;;0.40;0.40;;;;;;;15.51;100.00;99715.66;5051230;28;20282;-63
2023/05/07 01:43:02;;;;;;;0.83;0.83;;;;;;;15.46;100.00;99716.75;5051527;28;20208;-64
2023/05/07 01:45:31;;;;;;;0.47;0.47;;;;;;;15.16;100.00;99706.03;5051134;28;20197;-63
2023/05/07 01:47:59;;;;;;;0.60;0.60;;;;;;;15.21;100.00;99714.44;5051236;28;20214;-64
2023/05/07 01:50:26;;;;;;;0.50;0.50;;;;;;;15.11;100.00;99708.00;5051529;28;20714;-63
2023/05/07 01:52:53;;;;;;;0.50;0.50;;;;;;;15.03;100.00;99702.28;5051327;28;20270;-63
2023/05/07 01:55:20;;;;;;;0.50;0.50;;;;;;;15.18;100.00;99709.41;5051542;28;20744;-64
2023/05/07 01:57:48;;;;;;;0.60;0.60;;;;;;;15.20;100.00;99715.31;5050851;28;20196;-64
2023/05/07 02:00:15;;;;;;;0.40;0.40;;;;;;;15.17;100.00;99703.38;5051554;28;20289;-63
2023/05/07 02:02:42;;;;;;;0.50;0.50;;;;;;;14.95;100.00;99706.97;5051290;28;20258;-64
2023/05/07 02:05:09;;;;;;;0.70;0.70;;;;;;;14.94;100.00;99702.69;5050687;28;20282;-64
2023/05/07 02:07:36;;;;;;;0.40;0.40;;;;;;;14.77;100.00;99697.41;5050078;28;20222;-63
2023/05/07 02:10:03;;;;;;;0.57;0.57;;;;;;;14.83;100.00;99692.03;5049086;28;20272;-63
2023/05/07 02:12:30;;;;;;;0.60;0.60;;;;;;;14.70;100.00;99689.94;5049951;28;20216;-64
2023/05/07 02:14:58;;;;;;;0.50;0.50;;;;;;;14.64;100.00;99691.94;5049867;28;20924;-63
2023/05/07 02:17:25;;;;;;;0.50;0.50;;;;;;;14.54;100.00;99686.31;5050389;28;20258;-63
2023/05/07 02:19:51;;;;;;;0.60;0.60;;;;;;;14.58;100.00;99698.19;5050094;28;20257;-63
2023/05/07 02:22:18;;;;;;;0.60;0.60;;;;;;;14.56;100.00;99699.16;5050455;28;20269;-63
2023/05/07 02:24:45;;;;;;;0.50;0.50;;;;;;;14.33;100.00;99686.34;5050018;28;20258;-63
2023/05/07 02:27:12;;;;;;;0.50;0.50;;;;;;;14.37;100.00;99693.09;5050168;28;20201;-63
2023/05/07 02:29:38;;;;;;;0.57;0.57;;;;;;;14.40;100.00;99698.97;5050368;28;20668;-63
2023/05/07 02:32:07;;;;;;;0.53;0.53;;;;;;;14.48;100.00;99699.47;5049833;28;20258;-63
2023/05/07 02:34:34;;;;;;;0.60;0.60;;;;;;;14.56;100.00;99705.16;5049746;28;20237;-63
2023/05/07 02:37:00;;;;;;;0.70;0.70;;;;;;;14.54;100.00;99699.22;5049552;28;20206;-63
2023/05/07 02:39:27;;;;;;;0.50;0.50;;;;;;;14.55;100.00;99690.59;5049896;28;20256;-64
2023/05/07 02:41:54;;;;;;;0.60;0.60;;;;;;;14.58;100.00;99690.47;5049506;28;20315;-63
2023/05/07 02:44:20;;;;;;;0.40;0.40;;;;;;;14.58;100.00;99682.72;5049559;28;20206;-63
2023/05/07 02:46:47;;;;;;;0.40;0.40;;;;;;;14.67;100.00;99689.22;5049784;28;20263;-63
2023/05/07 02:49:15;;;;;;;0.50;0.50;;;;;;;14.66;100.00;99685.84;5049957;28;20199;-63
2023/05/07 02:51:42;;;;;;;0.63;0.63;;;;;;;14.64;100.00;99687.63;5049652;28;20200;-63
2023/05/07 02:54:08;;;;;;;0.93;0.93;;;;;;;14.61;100.00;99682.59;5049771;28;20702;-63
2023/05/07 02:56:35;;;;;;;0.60;0.60;;;;;;;14.63;100.00;99683.38;5049606;28;20197;-63
2023/05/07 02:59:02;;;;;;;0.50;0.50;;;;;;;14.66;100.00;99683.25;5049546;28;20212;-63
2023/05/07 03:01:28;;;;;;;0.50;0.50;;;;;;;14.67;100.00;99676.31;5049703;28;20255;-63
2023/05/07 03:03:56;;;;;;;0.57;0.57;;;;;;;14.68;100.00;99672.84;5007874;28;1132018;-64
2023/05/07 03:06:24;;;;;;;0.50;0.50;;;;;;;14.63;100.00;99673.06;5050249;28;20668;-64
2023/05/07 03:08:51;;;;;;;0.50;0.50;;;;;;;14.60;100.00;99678.31;5051936;28;20200;-64
2023/05/07 03:11:17;;;;;;;0.73;0.73;;;;;;;14.56;100.00;99679.38;5054431;28;20634;-64
2023/05/07 03:13:44;;;;;;;0.37;0.37;;;;;;;14.63;100.00;99678.22;5054359;28;20254;-63
2023/05/07 03:16:11;;;;;;;0.60;0.60;;;;;;;14.63;100.00;99679.97;5054452;28;20257;-64
2023/05/07 03:18:37;;;;;;;0.40;0.40;;;;;;;14.65;100.00;99684.13;5052937;28;20196;-63
2023/05/07 03:21:04;;;;;;;0.70;0.70;;;;;;;14.64;100.00;99692.78;5054126;28;20699;-63
2023/05/07 03:23:32;;;;;;;0.40;0.40;;;;;;;14.64;100.00;99694.50;5054333;28;20204;-64
2023/05/07 03:25:59;;;;;;;0.77;0.77;;;;;;;14.62;100.00;99689.44;5054099;28;20198;-63
2023/05/07 03:28:25;;;;;;;0.67;0.67;;;;;;;14.62;100.00;99684.28;5054108;28;20208;-63
2023/05/07 03:30:52;;;;;;;0.40;0.40;;;;;;;14.60;100.00;99691.22;5054158;28;20200;-63
2023/05/07 03:33:19;;;;;;;0.60;0.60;;;;;;;14.62;100.00;99688.59;5053720;28;20228;-64
2023/05/07 03:35:46;;;;;;;0.50;0.50;;;;;;;14.62;100.00;99691.16;5053597;28;20634;-63
2023/05/07 03:38:12;;;;;;;0.60;0.60;;;;;;;14.64;100.00;99687.63;5053620;28;20215;-63
2023/05/07 03:40:40;;;;;;;0.50;0.50;;;;;;;14.60;100.00;99691.22;5053626;28;20232;-63
2023/05/07 03:43:07;;;;;;;0.60;0.60;;;;;;;14.58;100.00;99690.47;5053938;28;20204;-63
2023/05/07 03:45:34;;;;;;;0.90;0.90;;;;;;;14.54;100.00;99681.16;5053818;28;20232;-63
2023/05/07 03:48:01;;;;;;;0.57;0.57;;;;;;;14.60;100.00;99685.25;5053873;28;20200;-64
2023/05/07 03:50:28;;;;;;;0.60;0.60;;;;;;;14.57;100.00;99675.88;5054138;28;20207;-63
2023/05/07 03:52:54;;;;;;;0.63;0.63;;;;;;;14.69;100.00;99696.03;5053581;28;20754;-62
2023/05/07 03:55:21;;;;;;;0.50;0.50;;;;;;;14.76;100.00;99690.59;5053167;28;20228;-62
2023/05/07 03:57:49;;;;;;;0.70;0.70;;;;;;;14.86;100.00;99691.88;5051578;28;20204;-63
2023/05/07 04:00:17;;;;;;;0.80;0.80;;;;;;;14.97;100.00;99690.50;5053605;28;20203;-63
2023/05/07 04:02:44;;;;;;;0.50;0.50;;;;;;;15.10;100.00;99690.81;5053289;28;20204;-63
2023/05/07 04:05:11;;;;;;;0.50;0.50;;;;;;;15.13;100.00;99696.69;5052983;28;20245;-63
2023/05/07 04:07:37;;;;;;;0.50;0.50;;;;;;;15.22;100.00;99685.94;5053018;28;20193;-64
2023/05/07 04:10:05;;;;;;;0.67;0.67;;;;;;;15.35;100.00;99701.72;5053008;28;20266;-63
2023/05/07 04:12:31;;;;;;;0.63;0.63;;;;;;;15.48;100.00;99692.53;5051823;28;20196;-63
2023/05/07 04:14:59;;;;;;;0.40;0.40;;;;;;;15.60;100.00;99692.00;5052710;28;20588;-63
2023/05/07 04:17:26;;;;;;;0.60;0.60;;;;;;;15.75;100.00;99699.03;5052736;28;20274;-63
2023/05/07 04:19:53;;;;;;;0.60;0.60;;;;;;;15.91;100.00;99687.97;5052837;28;20196;-64
2023/05/07 04:22:19;;;;;;;0.50;0.50;;;;;;;16.06;100.00;99695.84;5053022;28;20231;-63
2023/05/07 04:24:46;;;;;;;0.40;0.40;;;;;;;16.18;100.00;99700.44;5053279;28;20742;-64
2023/05/07 04:27:13;;;;;;;0.63;0.63;;;;;;;16.19;100.00;99701.25;5053183;28;20208;-63
2023/05/07 04:29:42;;;;;;;0.50;0.50;;;;;;;16.23;100.00;99697.63;5053019;28;20200;-63
2023/05/07 04:32:10;;;;;;;0.40;0.40;;;;;;;16.21;100.00;99689.09;5049032;28;20197;-63
2023/05/07 04:34:37;;;;;;;0.60;0.60;;;;;;;16.50;100.00;99704.03;5052598;28;20683;-64
2023/05/07 04:37:03;;;;;;;0.40;0.40;;;;;;;16.58;100.00;99688.16;5052448;28;20654;-64
2023/05/07 04:39:30;;;;;;;0.50;0.50;;;;;;;16.80;100.00;99693.94;5052582;28;20204;-63
2023/05/07 04:41:57;;;;;;;0.47;0.47;;;;;;;17.01;100.00;99702.34;5052952;28;20312;-63
2023/05/07 04:44:24;;;;;;;0.40;0.40;;;;;;;17.22;100.00;99706.44;5052933;28;20223;-64
2023/05/07 04:46:51;;;;;;;0.47;0.47;;;;;;;17.42;100.00;99713.97;5052631;28;20205;-64
2023/05/07 04:49:19;;;;;;;0.40;0.40;;;;;;;17.59;99.58;99706.19;5052660;28;20197;-64
2023/05/07 04:51:46;;;;;;;0.50;0.50;;;;;;;17.73;99.25;99711.47;5051718;28;20208;-64
2023/05/07 04:54:12;;;;;;;0.50;0.50;;;;;;;17.86;99.09;99696.06;5052448;28;20197;-64
2023/05/07 04:56:39;;;;;;;0.40;0.40;;;;;;;18.21;99.35;99704.47;5052040;28;20196;-64
2023/05/07 04:59:06;;;;;;;0.50;0.50;;;;;;;18.48;97.58;99713.25;5052472;28;20630;-64
2023/05/07 05:01:33;;;;;;;0.60;0.60;;;;;;;18.75;94.95;99711.72;5051904;28;20244;-65
2023/05/07 05:04:00;;;;;;;0.77;0.77;;;;;;;18.98;95.14;99722.50;5046821;28;20230;-64
2023/05/07 05:06:28;;;;;;;0.43;0.43;;;;;;;19.22;92.77;99711.50;5052251;28;20285;-64
2023/05/07 05:08:55;;;;;;;0.57;0.57;;;;;;;19.48;91.23;99716.91;5051964;28;20257;-64
2023/05/07 05:11:22;;;;;;;0.97;0.60;;;;;;;19.72;90.35;99716.19;5052410;28;20675;-64
2023/05/07 05:13:49;;;;;;;0.40;0.40;;;;;;;19.93;88.00;99714.84;5049852;28;20206;-64
2023/05/07 05:16:16;;;;;;;0.47;0.47;;;;;;;20.18;88.12;99716.72;5051986;28;20291;-64
2023/05/07 05:18:43;;;;;;;0.47;0.47;;;;;;;20.44;87.37;99720.28;5051988;28;20261;-64
2023/05/07 05:21:09;;;;;;;0.40;0.40;;;;;;;20.65;86.29;99720.63;5052149;28;20216;-64
2023/05/07 05:23:37;;;;;;;0.27;0.27;;;;;;;20.85;83.86;99720.97;5052360;28;20258;-64
2023/05/07 05:26:04;;;;;;;0.50;0.50;;;;;;;21.04;83.47;99723.16;5051775;28;20634;-65
2023/05/07 05:28:31;;;;;;;1.90;0.40;;;;;;;21.10;82.64;99724.56;5051886;28;20207;-65
2023/05/07 05:30:57;;;;;;;0.40;0.40;;;;;;;21.24;82.42;99727.03;5051035;28;20203;-65
2023/05/07 05:33:24;;;;;;;0.53;0.53;;;;;;;21.19;79.89;99718.72;5051719;28;20200;-65
2023/05/07 05:35:51;;;;;;;0.50;0.50;;;;;;;21.42;81.83;99736.22;5051276;28;20200;-65
2023/05/07 05:38:18;;;;;;;0.50;0.50;;;;;;;21.62;78.86;99743.47;5051568;28;20292;-65
2023/05/07 05:40:46;;;;;;;0.93;0.93;;;;;;;21.78;78.48;99738.84;5051794;28;20212;-65
2023/05/07 05:43:13;;;;;;;0.50;0.50;;;;;;;21.94;79.54;99739.47;5046431;28;20596;-65
2023/05/07 05:45:39;;;;;;;1.80;0.53;;;;;;;21.94;77.77;99739.47;5051743;28;20196;-65
2023/05/07 05:48:08;;;;;;;0.50;0.50;;;;;;;22.01;75.65;99741.63;5051757;28;20627;-65
2023/05/07 05:50:35;;;;;;;0.33;0.33;;;;;;;22.06;78.71;99743.00;5051899;28;20207;-65
2023/05/07 05:53:02;;;;;;;0.50;0.50;;;;;;;22.19;77.82;99742.94;5051603;28;20274;-65
2023/05/07 05:55:29;;;;;;;0.50;0.50;;;;;;;22.14;76.80;99752.84;5051310;28;20200;-65
2023/05/07 05:57:57;;;;;;;0.70;0.70;;;;;;;22.24;76.35;99746.03;5050659;28;20259;-64
2023/05/07 06:00:24;;;;;;;0.50;0.50;;;;;;;22.49;76.17;99741.50;5051164;28;20212;-65
2023/05/07 06:02:50;;;;;;;0.67;0.67;;;;;;;;;;5050790;28;20615;-65
2023/05/07 06:05:17;;;;;;;0.40;0.40;;;;;;;22.75;73.33;99750.06;5051305;28;20647;-65
2023/05/07 06:07:44;;;;;;;0.50;0.50;;;;;;;22.87;72.79;99759.63;5051434;28;20204;-65
2023/05/07 06:10:11;;;;;;;0.20;0.20;;;;;;;23.07;73.28;99759.91;5051561;28;20274;-65
2023/05/07 06:12:37;;;;;;;0.50;0.50;;;;;;;23.10;71.74;99757.06;5051342;28;20263;-65
2023/05/07 06:15:07;;;;;;;0.43;0.43;;;;;;;23.30;69.26;99764.19;5050961;28;20258;-65
2023/05/07 06:17:33;;;;;;;0.53;0.40;;;;;;;23.17;69.35;99763.47;5051042;28;20589;-65
2023/05/07 06:20:00;;;;;;;0.50;0.50;;;;;;;23.12;69.50;99760.38;5050960;28;20907;-65
2023/05/07 06:22:27;;;;;;;0.30;0.30;;;;;;;23.41;69.62;99759.84;5050497;28;20248;-65
2023/05/07 06:24:53;;;;;;;0.40;0.40;;;;;;;23.63;68.01;99760.78;5050676;28;20197;-65
2023/05/07 06:27:20;;;;;;;0.40;0.40;;;;;;;23.64;66.10;99758.06;5050802;28;20201;-65
2023/05/07 06:29:49;;;;;;;0.47;0.47;;;;;;;23.65;66.21;99758.91;5050774;28;20204;-65
2023/05/07 06:32:17;;;;;;;0.30;0.30;;;;;;;23.83;66.16;99760.06;5050579;28;20200;-65
2023/05/07 06:34:44;;;;;;;0.40;0.40;;;;;;;23.51;66.22;99750.34;5050523;28;20207;-66
2023/05/07 06:37:11;;;;;;;0.40;0.40;;;;;;;23.66;66.61;99752.69;5050552;28;20200;-65
2023/05/07 06:39:37;;;;;;;0.40;0.40;;;;;;;23.91;65.63;99755.06;5050886;28;20200;-65
2023/05/07 06:42:04;;;;;;;0.40;0.40;;;;;;;24.17;67.04;99755.63;5049352;28;20274;-66
2023/05/07 06:44:31;;;;;;;0.30;0.30;;;;;;;24.38;64.82;99751.25;5050763;28;20201;-65
2023/05/07 06:46:58;;;;;;;0.30;0.30;;;;;;;24.56;64.89;99736.63;5050538;28;20197;-66
2023/05/07 06:49:26;;;;;;;0.30;0.30;;;;;;;24.70;64.06;99748.63;5050279;28;20638;-65
2023/05/07 06:51:53;;;;;;;0.20;0.20;;;;;;;24.67;62.22;99754.09;5050618;28;20269;-66
2023/05/07 06:54:20;;;;;;;0.50;0.50;;;;;;;24.59;62.87;99751.31;5050498;28;20204;-65
2023/05/07 06:56:46;;;;;;;0.30;0.30;;;;;;;24.55;61.63;99751.56;5050639;28;20596;-66
2023/05/07 06:59:13;;;;;;;0.30;0.30;;;;;;;24.15;62.48;99762.75;5050099;28;20250;-65
2023/05/07 07:01:40;;;;;;;0.30;0.30;;;;;;;24.09;64.50;99755.38;5050384;28;20256;-65
2023/05/07 07:04:06;;;;;;;0.40;0.40;;;;;;;24.30;64.08;99746.63;5050096;28;20221;-65
2023/05/07 07:06:34;;;;;;;0.60;0.60;;;;;;;24.57;63.20;99746.16;5049778;28;20573;-65
2023/05/07 07:09:01;;;;;;;0.30;0.30;;;;;;;24.27;63.07;99744.25;5050607;28;20196;-66
2023/05/07 07:11:28;;;;;;;0.47;0.47;;;;;;;24.04;63.02;99751.31;5050303;28;20231;-65
2023/05/07 07:13:55;;;;;;;0.50;0.50;;;;;;;23.85;63.50;99752.91;5050365;28;20215;-65
2023/05/07 07:16:22;;;;;;;0.43;0.43;;;;;;;23.94;62.39;99754.81;5049500;28;20299;-66
2023/05/07 07:18:48;;;;;;;0.30;0.30;;;;;;;23.69;65.60;99749.81;5050351;28;20639;-66
2023/05/07 07:21:15;;;;;;;0.40;0.40;;;;;;;23.86;63.04;99747.56;5050334;28;20201;-65
2023/05/07 07:23:43;;;;;;;0.50;0.50;;;;;;;23.81;64.34;99760.16;5050446;28;20595;-66
2023/05/07 07:26:10;;;;;;;0.40;0.40;;;;;;;23.77;68.09;99753.53;5050119;28;20207;-65
2023/05/07 07:28:43;;;;;;;0.60;0.60;;;;;;;24.18;65.43;99754.66;5050188;28;20657;-66
2023/05/07 07:31:10;;;;;;;0.33;0.33;;;;;;;23.76;64.65;99764.94;5049861;28;20580;-65
2023/05/07 07:33:36;;;;;;;0.20;0.20;;;;;;;23.93;64.73;99764.47;5049733;28;20290;-66
2023/05/07 07:36:05;;;;;;;0.40;0.40;;;;;;;23.85;64.63;99756.34;5049865;28;20254;-65
2023/05/07 07:38:31;;;;;;;0.30;0.30;;;;;;;24.00;65.59;99763.03;5049448;28;20299;-66
2023/05/07 07:40:59;;;;;;;0.20;0.20;;;;;;;24.32;64.00;99762.25;5050148;28;20250;-66
2023/05/07 07:43:26;;;;;;;0.30;0.30;;;;;;;24.33;61.77;99761.31;5050212;28;20278;-66
2023/05/07 07:45:53;;;;;;;0.20;0.20;;;;;;;24.39;62.78;99747.69;5049821;28;20255;-66
2023/05/07 07:48:19;;;;;;;0.50;0.50;;;;;;;24.60;62.95;99760.81;5049964;28;20715;-66
2023/05/07 07:50:49;;;;;;;0.40;0.40;;;;;;;24.56;63.30;99763.69;5049912;28;20205;-66
2023/05/07 07:53:15;;;;;;;0.50;0.50;;;;;;;24.16;64.62;99759.19;5050177;28;20201;-66
2023/05/07 07:55:42;;;;;;;0.30;0.30;;;;;;;24.25;64.16;99754.03;5052275;28;20254;-65
2023/05/07 07:58:10;;;;;;;0.30;0.30;;;;;;;24.55;64.20;99745.47;5053202;28;20208;-66
2023/05/07 08:00:37;;;;;;;0.30;0.30;;;;;;;24.96;63.74;99760.44;5053159;28;20580;-66
2023/05/07 08:03:04;;;;;;;0.30;0.30;;;;;;;25.14;62.63;99753.63;5053325;28;20221;-66
2023/05/07 08:05:31;;;;;;;0.73;0.73;;;;;;;25.31;61.44;99760.06;5053280;28;20216;-66
2023/05/07 08:07:58;;;;;;;0.80;0.80;;;;;;;25.52;62.40;99756.47;5053658;28;20278;-66
2023/05/07 08:10:25;;;;;;;0.57;0.43;;;;;;;25.74;62.46;99763.31;5053563;28;20270;-66
2023/05/07 08:12:52;;;;;;;0.50;0.50;;;;;;;25.81;61.14;99756.56;5053231;28;20200;-67
2023/05/07 08:15:20;;;;;;;0.23;0.23;;;;;;;25.54;59.75;99748.47;5052950;28;20212;-66
2023/05/07 08:17:47;;;;;;;0.27;0.27;;;;;;;25.49;60.19;99748.84;5053068;28;20197;-66
2023/05/07 08:20:13;;;;;;;0.90;0.90;;;;;;;25.35;59.40;99745.72;5053306;28;20204;-66
2023/05/07 08:22:40;;;;;;;0.40;0.40;;;;;;;25.15;61.49;99743.97;5053023;28;20216;-67
2023/05/07 08:25:07;;;;;;;0.30;0.30;;;;;;;25.25;59.05;99745.69;5052626;28;20239;-66
2023/05/07 08:27:34;;;;;;;0.50;0.50;;;;;;;25.17;58.90;99734.19;5052746;28;20266;-66
2023/05/07 08:30:01;;;;;;;0.40;0.40;;;;;;;25.11;63.27;99732.06;5052701;28;20201;-66
2023/05/07 08:32:29;;;;;;;0.30;0.30;;;;;;;24.73;61.29;99738.69;5052837;28;20584;-66
2023/05/07 08:34:55;;;;;;;0.20;0.20;;;;;;;24.85;62.80;99740.31;5052320;28;20201;-66
2023/05/07 08:37:22;;;;;;;0.30;0.30;;;;;;;25.00;60.73;99735.59;5052581;28;20201;-66
2023/05/07 08:39:49;;;;;;;0.30;0.30;;;;;;;25.13;61.60;99732.78;5053212;28;20665;-66
2023/05/07 08:42:17;;;;;;;0.30;0.30;;;;;;;25.21;62.20;99719.81;5052993;28;20368;-66
2023/05/07 08:44:46;;;;;;;0.57;0.57;;;;;;;25.27;61.93;99729.78;5052514;28;20204;-66
2023/05/07 08:47:13;;;;;;;0.30;0.30;;;;;;;25.17;60.68;99713.19;5052535;28;20294;-66
2023/05/07 08:49:42;;;;;;;0.20;0.20;;;;;;;25.39;60.35;99731.38;5052725;28;20270;-66
2023/05/07 08:52:08;;;;;;;0.60;0.60;;;;;;;25.58;58.08;99728.84;5052690;28;20291;-66
2023/05/07 08:54:38;;;;;;;0.37;0.37;;;;;;;25.45;58.92;99722.97;5052805;28;20283;-66
2023/05/07 08:57:05;;;;;;;0.40;0.40;;;;;;;25.04;58.89;99722.09;5051958;28;20244;-65
2023/05/07 08:59:32;;;;;;;0.30;0.30;;;;;;;25.07;60.66;99727.06;5052281;28;20746;-66
2023/05/07 09:01:59;;;;;;;0.40;0.40;;;;;;;25.44;61.23;99735.25;5051969;28;20283;-66
2023/05/07 09:04:25;;;;;;;0.33;0.33;;;;;;;25.46;58.11;99724.66;5052463;28;20236;-65
2023/05/07 09:06:53;;;;;;;0.40;0.40;;;;;;;24.86;56.46;99718.41;5051541;28;20680;-66
2023/05/07 09:09:22;;;;;;;0.30;0.30;;;;;;;24.83;55.48;99713.41;5052958;28;20745;-66
2023/05/07 09:11:49;;;;;;;0.33;0.33;;;;;;;24.72;57.38;99716.06;5052468;28;20576;-66
2023/05/07 09:14:16;;;;;;;0.53;0.53;;;;;;;24.75;58.07;99715.00;5052454;28;20199;-66
2023/05/07 09:16:42;;;;;;;0.20;0.20;;;;;;;24.96;57.50;99708.78;5052385;28;20718;-67
2023/05/07 09:19:09;;;;;;;0.30;0.30;;;;;;;24.82;57.04;99709.13;5051886;28;20270;-66
2023/05/07 09:21:36;;;;;;;0.40;0.40;;;;;;;24.53;58.82;99705.44;5052477;28;20193;-66
2023/05/07 09:24:04;;;;;;;0.47;0.47;;;;;;;24.93;57.82;99709.06;5052177;28;20708;-66
2023/05/07 09:26:32;;;;;;;0.30;0.30;;;;;;;24.87;57.17;99709.56;5052160;28;20201;-65
2023/05/07 09:28:59;;;;;;;0.33;0.33;;;;;;;24.98;56.32;99699.00;5052273;28;20262;-66
2023/05/07 09:31:26;;;;;;;0.30;0.30;;;;;;;24.82;51.86;99701.25;5052076;28;20200;-66
2023/05/07 09:33:55;;;;;;;0.30;0.30;;;;;;;24.99;52.87;99703.28;5052112;28;20197;-66
2023/05/07 09:36:22;;;;;;;0.30;0.30;;;;;;;25.07;51.77;99700.81;5051907;28;20668;-66
2023/05/07 09:38:49;;;;;;;0.30;0.30;;;;;;;25.29;51.30;99704.25;5052077;28;20192;-66
2023/05/07 09:41:17;;;;;;;0.30;0.30;;;;;;;25.18;50.96;99707.78;5051769;28;20204;-66
2023/05/07 09:43:44;;;;;;;0.30;0.30;;;;;;;25.18;52.13;99701.72;5051866;28;20235;-66
2023/05/07 09:46:14;;;;;;;0.20;0.20;;;;;;;25.27;53.02;99686.00;5051570;28;20255;-66
2023/05/07 09:48:44;;;;;;;0.20;0.20;;;;;;;25.45;52.05;99691.47;5052038;28;20679;-66
2023/05/07 09:51:19;;;;;;;0.30;0.30;;;;;;;25.53;55.50;99681.16;5051337;28;20375;-66
2023/05/07 09:53:47;;;;;;;0.40;0.40;;;;;;;25.39;51.58;99681.50;5051582;28;20253;-66
2023/05/07 09:56:17;;;;;;;0.30;0.30;;;;;;;25.55;54.55;99668.75;5051626;28;20203;-66
2023/05/07 09:58:46;;;;;;;0.20;0.20;;;;;;;25.34;49.50;99687.16;5051195;28;20200;-66
2023/05/07 10:01:13;;;;;;;0.23;0.23;;;;;;;25.48;51.43;99673.66;5051279;28;20201;-66
2023/05/07 10:03:42;;;;;;;0.20;0.20;;;;;;;25.80;53.08;99684.00;5050970;28;20212;-65
2023/05/07 10:06:10;;;;;;;0.37;0.37;;;;;;;25.60;49.60;99677.03;5051369;28;20200;-66
2023/05/07 10:08:37;;;;;;;0.40;0.40;;;;;;;25.22;50.54;99677.72;5050923;28;20669;-66
2023/05/07 10:11:05;;;;;;;0.47;0.47;;;;;;;25.14;49.74;99671.47;5051054;28;20262;-66
2023/05/07 10:13:35;;;;;;;0.30;0.30;;;;;;;24.83;49.53;99650.47;5050418;28;20193;-65
2023/05/07 10:16:04;;;;;;;0.63;0.63;;;;;;;24.97;50.53;99659.78;5051351;28;20205;-66
2023/05/07 10:18:32;;;;;;;0.20;0.20;;;;;;;25.13;50.09;99656.69;5050527;28;20205;-67
2023/05/07 10:21:05;;;;;;;0.30;0.30;;;;;;;24.88;49.68;99661.38;5050898;28;20217;-65
2023/05/07 10:23:34;;;;;;;0.30;0.30;;;;;;;24.98;51.69;99662.28;5050438;28;20275;-65
2023/05/07 10:26:02;;;;;;;0.40;0.40;;;;;;;25.11;51.64;99648.94;5050597;28;20287;-66
2023/05/07 10:28:31;;;;;;;0.40;0.40;;;;;;;25.24;51.29;99653.94;5050504;28;20259;-65
2023/05/07 10:31:11;;;;;;;0.33;0.33;;;;;;;25.34;51.07;99655.66;5050648;28;20228;-65
2023/05/07 10:33:40;;;;;;;0.40;0.40;;;;;;;25.22;51.48;99645.38;5050924;28;20741;-66
2023/05/07 10:36:07;;;;;;;0.37;0.37;;;;;;;25.11;51.11;99648.09;5050971;28;20198;-65
2023/05/07 10:38:34;;;;;;;0.40;0.40;;;;;;;24.92;49.82;99644.44;5050840;28;20665;-66
2023/05/07 10:41:04;;;;;;;0.30;0.30;;;;;;;24.91;51.32;99641.97;5051172;28;20262;-66
2023/05/07 10:43:40;;;;;;;0.40;0.40;;;;;;;25.03;52.55;99619.91;5050862;28;20216;-66
2023/05/07 10:46:16;;;;;;;0.37;0.37;;;;;;;24.86;51.08;99607.41;5050962;28;20198;-66
2023/05/07 10:49:14;;;;;;;0.30;0.30;;;;;;;25.15;51.64;99628.50;5050491;28;20301;-66
2023/05/07 10:51:41;;;;;;;0.30;0.30;;;;;;;25.39;52.34;99621.13;5050045;28;20200;-66
2023/05/07 10:54:24;;;;;;;0.77;0.77;;;;;;;25.52;50.76;99621.75;5050584;28;20258;-65
2023/05/07 10:56:51;;;;;;;0.30;0.30;;;;;;;25.58;48.13;99616.78;5050343;28;20890;-65
2023/05/07 10:59:40;;;;;;;0.20;0.20;;;;;;;25.33;50.56;99621.69;5050684;28;20236;-64
2023/05/07 11:02:10;;;;;;;0.50;0.50;;;;;;;25.11;49.18;99624.47;5050823;28;20197;-65
2023/05/07 11:04:38;;;;;;;0.30;0.30;;;;;;;25.10;49.45;99609.72;5050060;28;20235;-65
2023/05/07 11:07:27;;;;;;;0.30;0.30;;;;;;;25.34;50.44;99610.19;5050773;28;20200;-65
2023/05/07 11:10:05;;;;;;;0.30;0.30;;;;;;;25.33;50.27;99616.44;5050025;28;20628;-65
2023/05/07 11:12:54;;;;;;;0.67;0.60;;;;;;;25.29;50.14;99610.63;5050426;28;20584;-65
2023/05/07 11:15:44;;;;;;;0.23;0.23;;;;;;;25.30;49.45;99611.44;5050975;28;20193;-65
2023/05/07 11:18:13;;;;;;;0.30;0.30;;;;;;;25.21;46.91;99612.22;5050349;28;20675;-65
2023/05/07 11:20:47;;;;;;;0.30;0.30;;;;;;;25.00;47.57;99618.41;5050498;28;20295;-65
2023/05/07 11:23:51;;;;;;;0.30;0.30;;;;;;;25.11;49.89;99616.59;5050087;28;20212;-66
2023/05/07 11:26:18;;;;;;;0.40;0.40;;;;;;;25.14;46.64;99606.69;5050169;28;20634;-65
2023/05/07 11:28:45;;;;;;;0.20;0.20;;;;;;;25.23;49.50;99610.31;5050005;28;20208;-66
2023/05/07 11:31:12;;;;;;;0.40;0.40;;;;;;;25.25;46.92;99592.63;5053754;28;20197;-65
2023/05/07 11:33:40;;;;;;;0.30;0.30;;;;;;;25.27;49.33;99601.19;5054408;28;20208;-65
2023/05/07 11:36:09;;;;;;;0.20;0.20;;;;;;;25.26;47.90;99596.94;5054110;28;20197;-66